NKS680 KFAY-KCOS
Flight info
| Callsign | NKS680 |
|---|---|
| Flight time | N/A |
| Altitude | 30000 |
| Route | LIVIA BWG BUM HGO OZZZY5 |
| Aircraft | MD82/M-SDFGIRWY/C |
Departure
| Time | 2026-05-06 03:06 |
|---|---|
| Airport | Fayetteville Regional Airport - Grannis Field (KFAY) |
Arrival
| Time | N/A |
|---|---|
| Airport | City of Colorado Springs Municipal Airport (KCOS) |
| Time | Latitude | Longitude | Altitude | Speed | Heading |
|---|---|---|---|---|---|
| 2026-05-06 02:42 | 34.99010 | -78.88669 | 190 ft | 0 kts | 355° |
| 2026-05-06 02:57 | 34.99002 | -78.88668 | 202 ft | 4 kts | 358° |
| 2026-05-06 02:57 | 34.98980 | -78.88668 | 201 ft | 4 kts | 18° |
| 2026-05-06 02:58 | 34.98965 | -78.88683 | 203 ft | 4 kts | 68° |
| 2026-05-06 02:58 | 34.98960 | -78.88703 | 203 ft | 4 kts | 84° |
| 2026-05-06 02:58 | 34.98960 | -78.88724 | 199 ft | 0 kts | 91° |
| 2026-05-06 03:01 | 34.98960 | -78.88707 | 202 ft | 8 kts | 91° |
| 2026-05-06 03:01 | 34.98957 | -78.88595 | 203 ft | 16 kts | 92° |
| 2026-05-06 03:01 | 34.98953 | -78.88492 | 190 ft | 11 kts | 69° |
| 2026-05-06 03:02 | 34.99011 | -78.88434 | 204 ft | 11 kts | 31° |
| 2026-05-06 03:02 | 34.99119 | -78.88355 | 190 ft | 24 kts | 31° |
| 2026-05-06 03:02 | 34.99296 | -78.88225 | 204 ft | 32 kts | 32° |
| 2026-05-06 03:02 | 34.99481 | -78.88086 | 195 ft | 31 kts | 32° |
| 2026-05-06 03:03 | 34.99660 | -78.87960 | 199 ft | 29 kts | 29° |
| 2026-05-06 03:03 | 34.99832 | -78.87839 | 194 ft | 28 kts | 30° |
| 2026-05-06 03:03 | 34.99993 | -78.87723 | 197 ft | 26 kts | 31° |
| 2026-05-06 03:03 | 35.00146 | -78.87609 | 206 ft | 25 kts | 32° |
| 2026-05-06 03:04 | 35.00274 | -78.87504 | 204 ft | 19 kts | 65° |
| 2026-05-06 03:04 | 35.00223 | -78.87399 | 201 ft | 13 kts | 187° |
| 2026-05-06 03:04 | 35.00185 | -78.87422 | 202 ft | 0 kts | 210° |
| 2026-05-06 03:05 | 35.00066 | -78.87507 | 206 ft | 46 kts | 211° |
| 2026-05-06 03:05 | 34.99632 | -78.87824 | 188 ft | 99 kts | 211° |
| 2026-05-06 03:05 | 34.98914 | -78.88345 | 200 ft | 140 kts | 210° |
| 2026-05-06 03:05 | 34.98032 | -78.89020 | 444 ft | 152 kts | 213° |
| 2026-05-06 03:06 | 34.97258 | -78.89788 | 1157 ft | 139 kts | 226° |
| 2026-05-06 03:06 | 34.96830 | -78.90901 | 1523 ft | 160 kts | 258° |
| 2026-05-06 03:06 | 34.97142 | -78.92372 | 1695 ft | 208 kts | 301° |
| 2026-05-06 03:06 | 34.98369 | -78.93343 | 2394 ft | 209 kts | 341° |
| 2026-05-06 03:07 | 34.99720 | -78.93693 | 3248 ft | 193 kts | 343° |
| 2026-05-06 03:07 | 35.01113 | -78.94079 | 3426 ft | 218 kts | 344° |
| 2026-05-06 03:07 | 35.02661 | -78.94511 | 3590 ft | 240 kts | 343° |
| 2026-05-06 03:07 | 35.04278 | -78.95019 | 4267 ft | 237 kts | 338° |
| 2026-05-06 03:08 | 35.05819 | -78.95793 | 4763 ft | 242 kts | 327° |
| 2026-05-06 03:08 | 35.07316 | -78.96890 | 4991 ft | 259 kts | 323° |
| 2026-05-06 03:08 | 35.08779 | -78.98119 | 5553 ft | 258 kts | 321° |
| 2026-05-06 03:08 | 35.10280 | -78.99434 | 5961 ft | 270 kts | 320° |
| 2026-05-06 03:09 | 35.11851 | -79.00871 | 5950 ft | 295 kts | 321° |
| 2026-05-06 03:09 | 35.13602 | -79.02216 | 6621 ft | 287 kts | 327° |
| 2026-05-06 03:09 | 35.15245 | -79.03310 | 7866 ft | 261 kts | 328° |
| 2026-05-06 03:09 | 35.16848 | -79.04358 | 8465 ft | 262 kts | 328° |
| 2026-05-06 03:10 | 35.18462 | -79.05422 | 9015 ft | 266 kts | 328° |
| 2026-05-06 03:10 | 35.20106 | -79.06510 | 9480 ft | 272 kts | 328° |
| 2026-05-06 03:10 | 35.21785 | -79.07641 | 9927 ft | 280 kts | 328° |
| 2026-05-06 03:10 | 35.23514 | -79.08812 | 10306 ft | 288 kts | 328° |
| 2026-05-06 03:11 | 35.25279 | -79.10010 | 10820 ft | 291 kts | 327° |
| 2026-05-06 03:11 | 35.27025 | -79.11268 | 11359 ft | 291 kts | 320° |
| 2026-05-06 03:11 | 35.28475 | -79.12963 | 11881 ft | 287 kts | 304° |
| 2026-05-06 03:11 | 35.29457 | -79.15036 | 12416 ft | 285 kts | 291° |
| 2026-05-06 03:12 | 35.30181 | -79.17329 | 12940 ft | 286 kts | 288° |
| 2026-05-06 03:12 | 35.30817 | -79.19604 | 13479 ft | 287 kts | 287° |
| 2026-05-06 03:12 | 35.31427 | -79.21931 | 13973 ft | 288 kts | 286° |
| 2026-05-06 03:12 | 35.32020 | -79.24285 | 14401 ft | 290 kts | 285° |
| 2026-05-06 03:13 | 35.32608 | -79.26653 | 14838 ft | 292 kts | 285° |
| 2026-05-06 03:13 | 35.33202 | -79.29043 | 15242 ft | 294 kts | 286° |
| 2026-05-06 03:13 | 35.33804 | -79.31450 | 15668 ft | 296 kts | 286° |
| 2026-05-06 03:13 | 35.34417 | -79.33869 | 16088 ft | 299 kts | 286° |
| 2026-05-06 03:14 | 35.35043 | -79.36303 | 16505 ft | 301 kts | 287° |
| 2026-05-06 03:14 | 35.35681 | -79.38750 | 16916 ft | 303 kts | 287° |
| 2026-05-06 03:14 | 35.36326 | -79.41214 | 17321 ft | 305 kts | 287° |
| 2026-05-06 03:14 | 35.36975 | -79.43695 | 17704 ft | 307 kts | 287° |
| 2026-05-06 03:15 | 35.37629 | -79.46194 | 18100 ft | 308 kts | 287° |
| 2026-05-06 03:15 | 35.38287 | -79.48704 | 18462 ft | 311 kts | 287° |
| 2026-05-06 03:15 | 35.38949 | -79.51226 | 18827 ft | 311 kts | 287° |
| 2026-05-06 03:15 | 35.39607 | -79.53750 | 19175 ft | 312 kts | 287° |
| 2026-05-06 03:16 | 35.40273 | -79.56290 | 19493 ft | 314 kts | 287° |
| 2026-05-06 03:16 | 35.40948 | -79.58870 | 19617 ft | 323 kts | 287° |
| 2026-05-06 03:16 | 35.41643 | -79.61543 | 19684 ft | 335 kts | 287° |
| 2026-05-06 03:16 | 35.42357 | -79.64303 | 19759 ft | 345 kts | 287° |
| 2026-05-06 03:17 | 35.43090 | -79.67157 | 19824 ft | 356 kts | 287° |
| 2026-05-06 03:17 | 35.43844 | -79.70101 | 19900 ft | 367 kts | 287° |
| 2026-05-06 03:17 | 35.44619 | -79.73135 | 19971 ft | 378 kts | 287° |
| 2026-05-06 03:17 | 35.45417 | -79.76258 | 20017 ft | 389 kts | 287° |
| 2026-05-06 03:18 | 35.46240 | -79.79471 | 20043 ft | 400 kts | 287° |
| 2026-05-06 03:18 | 35.47087 | -79.82771 | 20043 ft | 412 kts | 287° |
| 2026-05-06 03:18 | 35.47959 | -79.86165 | 20061 ft | 422 kts | 287° |
| 2026-05-06 03:18 | 35.48845 | -79.89613 | 20397 ft | 423 kts | 287° |
| 2026-05-06 03:19 | 35.49726 | -79.93046 | 20895 ft | 420 kts | 287° |
| 2026-05-06 03:19 | 35.50601 | -79.96461 | 21341 ft | 419 kts | 287° |
| 2026-05-06 03:19 | 35.51473 | -79.99865 | 21811 ft | 417 kts | 287° |
| 2026-05-06 03:19 | 35.52339 | -80.03250 | 22271 ft | 415 kts | 287° |
| 2026-05-06 03:20 | 35.54064 | -80.09993 | 23103 ft | 413 kts | 287° |
| 2026-05-06 03:20 | 35.54920 | -80.13355 | 23519 ft | 412 kts | 287° |
| 2026-05-06 03:20 | 35.55765 | -80.16706 | 23933 ft | 410 kts | 287° |
| 2026-05-06 03:21 | 35.56599 | -80.20031 | 24371 ft | 406 kts | 287° |
| 2026-05-06 03:21 | 35.57415 | -80.23286 | 24768 ft | 403 kts | 287° |
| 2026-05-06 03:21 | 35.58239 | -80.26568 | 25143 ft | 400 kts | 287° |
| 2026-05-06 03:21 | 35.59059 | -80.29823 | 25534 ft | 397 kts | 287° |
| 2026-05-06 03:22 | 35.59873 | -80.33055 | 25923 ft | 395 kts | 287° |
| 2026-05-06 03:22 | 35.60681 | -80.36264 | 26303 ft | 392 kts | 287° |
| 2026-05-06 03:22 | 35.61485 | -80.39457 | 26678 ft | 390 kts | 287° |
| 2026-05-06 03:22 | 35.62285 | -80.42627 | 27059 ft | 387 kts | 287° |
| 2026-05-06 03:23 | 35.63080 | -80.45778 | 27401 ft | 385 kts | 287° |
| 2026-05-06 03:23 | 35.63872 | -80.48918 | 27646 ft | 386 kts | 287° |
| 2026-05-06 03:23 | 35.64674 | -80.52099 | 27596 ft | 394 kts | 287° |
| 2026-05-06 03:23 | 35.65494 | -80.55350 | 27580 ft | 401 kts | 287° |
| 2026-05-06 03:24 | 35.66318 | -80.58620 | 27863 ft | 399 kts | 287° |
| 2026-05-06 03:24 | 35.67131 | -80.61871 | 28242 ft | 396 kts | 287° |
| 2026-05-06 03:24 | 35.67931 | -80.65102 | 28565 ft | 394 kts | 287° |
| 2026-05-06 03:24 | 35.68725 | -80.68327 | 28869 ft | 392 kts | 287° |
| 2026-05-06 03:25 | 35.69515 | -80.71532 | 29169 ft | 391 kts | 287° |
| 2026-05-06 03:25 | 35.70302 | -80.74720 | 29468 ft | 389 kts | 287° |
| 2026-05-06 03:25 | 35.71086 | -80.77893 | 29803 ft | 386 kts | 287° |
| 2026-05-06 03:25 | 35.71867 | -80.81050 | 30090 ft | 385 kts | 287° |
| 2026-05-06 03:26 | 35.72645 | -80.84190 | 30348 ft | 383 kts | 287° |
| 2026-05-06 03:26 | 35.73417 | -80.87312 | 30580 ft | 381 kts | 287° |
| 2026-05-06 03:26 | 35.74187 | -80.90424 | 30808 ft | 379 kts | 287° |
| 2026-05-06 03:26 | 35.74953 | -80.93520 | 31036 ft | 377 kts | 288° |
| 2026-05-06 03:27 | 35.75716 | -80.96602 | 31253 ft | 375 kts | 288° |
| 2026-05-06 03:27 | 35.76476 | -80.99672 | 31454 ft | 374 kts | 288° |
| 2026-05-06 03:27 | 35.77231 | -81.02727 | 31683 ft | 372 kts | 288° |
| 2026-05-06 03:27 | 35.77983 | -81.05764 | 31862 ft | 371 kts | 288° |
| 2026-05-06 03:28 | 35.79480 | -81.11845 | 31980 ft | 371 kts | 288° |
| 2026-05-06 03:28 | 35.80953 | -81.17913 | 31998 ft | 369 kts | 288° |
| 2026-05-06 03:29 | 35.82417 | -81.23948 | 31999 ft | 367 kts | 288° |
| 2026-05-06 03:29 | 35.83880 | -81.29973 | 32004 ft | 367 kts | 288° |
| 2026-05-06 03:30 | 35.85345 | -81.36000 | 32001 ft | 367 kts | 288° |
| 2026-05-06 03:30 | 35.86813 | -81.42036 | 32003 ft | 367 kts | 288° |
| 2026-05-06 03:31 | 35.88283 | -81.48083 | 32044 ft | 370 kts | 288° |
| 2026-05-06 03:31 | 35.89777 | -81.54226 | 32061 ft | 378 kts | 288° |
| 2026-05-06 03:32 | 35.91284 | -81.60460 | 32054 ft | 380 kts | 287° |
| 2026-05-06 03:32 | 35.92769 | -81.66701 | 32051 ft | 379 kts | 287° |
| 2026-05-06 03:33 | 35.94251 | -81.72930 | 32030 ft | 378 kts | 287° |
| 2026-05-06 03:33 | 35.95732 | -81.79144 | 32008 ft | 377 kts | 287° |
| 2026-05-06 03:34 | 35.97214 | -81.85349 | 32000 ft | 377 kts | 287° |
| 2026-05-06 03:34 | 35.98685 | -81.91519 | 31982 ft | 377 kts | 287° |
| 2026-05-06 03:35 | 36.00164 | -81.97719 | 31969 ft | 376 kts | 287° |
| 2026-05-06 03:35 | 36.01639 | -82.03908 | 31954 ft | 375 kts | 287° |
| 2026-05-06 03:36 | 36.03109 | -82.10095 | 31948 ft | 375 kts | 287° |
| 2026-05-06 03:36 | 36.04558 | -82.16298 | 31966 ft | 376 kts | 287° |
| 2026-05-06 03:37 | 36.06001 | -82.22513 | 31950 ft | 376 kts | 287° |
| 2026-05-06 03:37 | 36.07447 | -82.28708 | 31946 ft | 377 kts | 286° |
| 2026-05-06 03:38 | 36.08928 | -82.34987 | 31940 ft | 384 kts | 287° |
| 2026-05-06 03:38 | 36.10423 | -82.41372 | 31941 ft | 388 kts | 286° |
| 2026-05-06 03:39 | 36.11915 | -82.47784 | 31915 ft | 387 kts | 286° |
| 2026-05-06 03:39 | 36.13414 | -82.54177 | 31940 ft | 387 kts | 286° |
| 2026-05-06 03:40 | 36.14896 | -82.60563 | 31951 ft | 386 kts | 286° |
| 2026-05-06 03:40 | 36.16354 | -82.66939 | 31958 ft | 385 kts | 286° |
| 2026-05-06 03:41 | 36.17811 | -82.73305 | 31961 ft | 384 kts | 286° |
| 2026-05-06 03:41 | 36.19270 | -82.79669 | 31962 ft | 384 kts | 286° |
| 2026-05-06 03:42 | 36.20732 | -82.86032 | 31965 ft | 384 kts | 286° |
| 2026-05-06 03:42 | 36.22192 | -82.92389 | 31959 ft | 384 kts | 286° |
| 2026-05-06 03:43 | 36.23642 | -82.98703 | 31947 ft | 384 kts | 286° |
| 2026-05-06 03:43 | 36.25098 | -83.05063 | 31935 ft | 384 kts | 285° |
| 2026-05-06 03:44 | 36.26540 | -83.11431 | 31936 ft | 383 kts | 285° |
| 2026-05-06 03:44 | 36.27965 | -83.17792 | 31946 ft | 383 kts | 285° |
| 2026-05-06 03:45 | 36.29393 | -83.24159 | 31959 ft | 383 kts | 285° |
| 2026-05-06 03:45 | 36.30826 | -83.30523 | 31964 ft | 383 kts | 285° |
| 2026-05-06 03:46 | 36.32255 | -83.36878 | 31965 ft | 383 kts | 285° |
| 2026-05-06 03:46 | 36.33687 | -83.43236 | 31969 ft | 383 kts | 285° |
| 2026-05-06 03:47 | 36.34875 | -83.48520 | 31946 ft | 382 kts | 285° |
| 2026-05-06 03:47 | 36.36299 | -83.54860 | 31932 ft | 381 kts | 285° |
| 2026-05-06 03:48 | 36.37704 | -83.61202 | 31916 ft | 381 kts | 285° |
| 2026-05-06 03:48 | 36.39096 | -83.67546 | 31895 ft | 381 kts | 285° |
| 2026-05-06 03:49 | 36.40488 | -83.73878 | 31883 ft | 380 kts | 285° |
| 2026-05-06 03:49 | 36.41888 | -83.80213 | 31896 ft | 381 kts | 285° |
| 2026-05-06 03:50 | 36.43279 | -83.86540 | 31893 ft | 380 kts | 285° |
| 2026-05-06 03:50 | 36.44677 | -83.92883 | 31905 ft | 382 kts | 285° |
| 2026-05-06 03:51 | 36.46080 | -83.99246 | 31904 ft | 381 kts | 284° |
| 2026-05-06 03:51 | 36.47475 | -84.05575 | 31923 ft | 380 kts | 284° |
| 2026-05-06 03:52 | 36.48847 | -84.11925 | 31927 ft | 381 kts | 284° |
| 2026-05-06 03:52 | 36.50209 | -84.18297 | 31916 ft | 382 kts | 284° |
| 2026-05-06 03:53 | 36.51584 | -84.24668 | 31901 ft | 382 kts | 284° |
| 2026-05-06 03:53 | 36.52953 | -84.31003 | 31900 ft | 382 kts | 284° |
| 2026-05-06 03:54 | 36.54330 | -84.37380 | 31900 ft | 382 kts | 284° |
| 2026-05-06 03:54 | 36.55701 | -84.43762 | 31904 ft | 382 kts | 284° |
| 2026-05-06 03:55 | 36.57079 | -84.50141 | 31906 ft | 382 kts | 284° |
| 2026-05-06 03:55 | 36.58452 | -84.56516 | 31907 ft | 381 kts | 283° |
| 2026-05-06 03:56 | 36.59801 | -84.62902 | 31903 ft | 381 kts | 283° |
| 2026-05-06 03:56 | 36.61143 | -84.69292 | 31901 ft | 382 kts | 283° |
| 2026-05-06 03:57 | 36.62491 | -84.75691 | 31899 ft | 382 kts | 283° |
| 2026-05-06 03:57 | 36.63842 | -84.82089 | 31892 ft | 382 kts | 283° |
| 2026-05-06 03:58 | 36.65192 | -84.88490 | 31889 ft | 382 kts | 283° |
| 2026-05-06 03:58 | 36.66543 | -84.94903 | 31899 ft | 383 kts | 283° |
| 2026-05-06 03:59 | 36.67900 | -85.01329 | 31902 ft | 383 kts | 283° |
| 2026-05-06 03:59 | 36.69251 | -85.07751 | 31895 ft | 383 kts | 283° |
| 2026-05-06 04:00 | 36.70574 | -85.14179 | 31886 ft | 383 kts | 283° |
| 2026-05-06 04:00 | 36.71894 | -85.20610 | 31876 ft | 383 kts | 283° |
| 2026-05-06 04:01 | 36.73221 | -85.27043 | 31869 ft | 383 kts | 282° |
| 2026-05-06 04:01 | 36.74550 | -85.33479 | 31860 ft | 383 kts | 282° |
| 2026-05-06 04:02 | 36.75877 | -85.39908 | 31858 ft | 383 kts | 282° |
| 2026-05-06 04:02 | 36.77204 | -85.46344 | 31864 ft | 384 kts | 283° |
| 2026-05-06 04:03 | 36.78534 | -85.52789 | 31862 ft | 384 kts | 282° |
| 2026-05-06 04:03 | 36.79851 | -85.59231 | 31859 ft | 383 kts | 282° |
| 2026-05-06 04:04 | 36.81146 | -85.65670 | 31852 ft | 382 kts | 282° |
| 2026-05-06 04:04 | 36.82428 | -85.72061 | 31850 ft | 383 kts | 282° |
| 2026-05-06 04:05 | 36.83724 | -85.78491 | 31844 ft | 380 kts | 282° |
| 2026-05-06 04:05 | 36.85014 | -85.84882 | 31838 ft | 380 kts | 282° |
| 2026-05-06 04:06 | 36.86304 | -85.91286 | 31840 ft | 381 kts | 282° |
| 2026-05-06 04:06 | 36.87599 | -85.97708 | 31834 ft | 381 kts | 282° |
| 2026-05-06 04:07 | 36.88894 | -86.04129 | 31836 ft | 381 kts | 282° |
| 2026-05-06 04:07 | 36.89939 | -86.10608 | 31832 ft | 380 kts | 278° |
| 2026-05-06 04:08 | 36.90999 | -86.17085 | 31831 ft | 381 kts | 282° |
| 2026-05-06 04:08 | 36.92336 | -86.23493 | 31828 ft | 381 kts | 283° |
| 2026-05-06 04:09 | 36.93763 | -86.29880 | 31826 ft | 382 kts | 283° |
| 2026-05-06 04:09 | 36.95200 | -86.36265 | 31820 ft | 381 kts | 283° |
| 2026-05-06 04:10 | 36.96615 | -86.42652 | 31822 ft | 381 kts | 282° |
| 2026-05-06 04:10 | 36.97779 | -86.49062 | 31827 ft | 380 kts | 280° |
| 2026-05-06 04:11 | 36.98924 | -86.55521 | 31824 ft | 381 kts | 281° |
| 2026-05-06 04:11 | 37.00158 | -86.61959 | 31823 ft | 380 kts | 282° |
| 2026-05-06 04:12 | 37.01429 | -86.68380 | 31818 ft | 381 kts | 281° |
| 2026-05-06 04:12 | 37.02709 | -86.74809 | 31812 ft | 381 kts | 282° |
| 2026-05-06 04:13 | 37.03979 | -86.81242 | 31810 ft | 381 kts | 281° |
| 2026-05-06 04:13 | 37.05245 | -86.87678 | 31803 ft | 381 kts | 281° |
| 2026-05-06 04:14 | 37.06507 | -86.94123 | 31806 ft | 382 kts | 281° |
| 2026-05-06 04:14 | 37.07751 | -87.00581 | 31804 ft | 381 kts | 281° |
| 2026-05-06 04:15 | 37.08981 | -87.07044 | 31803 ft | 382 kts | 281° |
| 2026-05-06 04:15 | 37.10216 | -87.13506 | 31791 ft | 382 kts | 281° |
| 2026-05-06 04:16 | 37.11451 | -87.19981 | 31790 ft | 383 kts | 281° |
| 2026-05-06 04:16 | 37.12698 | -87.26462 | 31819 ft | 383 kts | 281° |
| 2026-05-06 04:17 | 37.13940 | -87.32972 | 31831 ft | 384 kts | 281° |
| 2026-05-06 04:17 | 37.15179 | -87.39448 | 31797 ft | 381 kts | 281° |
| 2026-05-06 04:18 | 37.16412 | -87.45919 | 31798 ft | 383 kts | 281° |
| 2026-05-06 04:18 | 37.17627 | -87.52425 | 31796 ft | 383 kts | 281° |
| 2026-05-06 04:19 | 37.18828 | -87.58905 | 31800 ft | 384 kts | 281° |
| 2026-05-06 04:19 | 37.20044 | -87.65431 | 31810 ft | 384 kts | 281° |
| 2026-05-06 04:20 | 37.21262 | -87.71963 | 31815 ft | 385 kts | 281° |
| 2026-05-06 04:20 | 37.22483 | -87.78496 | 31831 ft | 384 kts | 281° |
| 2026-05-06 04:21 | 37.23702 | -87.85028 | 31837 ft | 385 kts | 281° |
| 2026-05-06 04:21 | 37.24921 | -87.91570 | 31861 ft | 385 kts | 281° |
| 2026-05-06 04:22 | 37.26134 | -87.98113 | 31879 ft | 385 kts | 281° |
| 2026-05-06 04:23 | 37.27916 | -88.07937 | 31891 ft | 385 kts | 281° |
| 2026-05-06 04:23 | 37.29105 | -88.14487 | 31888 ft | 385 kts | 281° |
| 2026-05-06 04:24 | 37.30297 | -88.21035 | 31891 ft | 385 kts | 281° |
| 2026-05-06 04:24 | 37.31490 | -88.27585 | 31879 ft | 384 kts | 281° |
| 2026-05-06 04:25 | 37.32682 | -88.34126 | 31877 ft | 384 kts | 281° |
| 2026-05-06 04:25 | 37.33872 | -88.40672 | 31870 ft | 384 kts | 281° |
| 2026-05-06 04:26 | 37.35061 | -88.47219 | 31870 ft | 384 kts | 281° |
| 2026-05-06 04:26 | 37.36228 | -88.53773 | 31859 ft | 384 kts | 280° |
| 2026-05-06 04:27 | 37.37383 | -88.60314 | 32023 ft | 382 kts | 281° |
| 2026-05-06 04:27 | 37.37951 | -88.63529 | 32151 ft | 382 kts | 281° |
| 2026-05-06 04:27 | 37.38538 | -88.66828 | 32281 ft | 381 kts | 281° |